Time;durP1;ratioP1;P1;durP2;ratioP2;P2;SDS_P1;SDS_P2;PMS_P1;PMS_P2;Temp;Humidity;BMP_temperature;BMP_pressure;BME280_temperature;BME280_humidity;BME280_pressure;Samples;Min_cycle;Max_cycle;Signal;HPM_P1;HPM_P2
2023/04/02 00:01:47;;;;;;;19.27;9.43;;;;;;;6.67;100.00;101010.09;4958332;28;20971;-69
2023/04/02 00:04:21;;;;;;;22.00;10.05;;;;;;;6.66;100.00;101015.22;4951245;28;20208;-69
2023/04/02 00:06:53;;;;;;;19.27;9.23;;;;;;;6.63;100.00;101015.97;4955092;28;20102;-69
2023/04/02 00:09:27;;;;;;;22.00;9.20;;;;;;;6.62;100.00;101024.59;4955155;28;20030;-69
2023/04/02 00:11:56;;;;;;;22.20;9.95;;;;;;;6.61;100.00;101025.41;4959212;28;20046;-69
2023/04/02 00:14:28;;;;;;;20.08;9.75;;;;;;;6.61;100.00;101028.84;4956064;28;20108;-69
2023/04/02 00:16:56;;;;;;;21.30;10.10;;;;;;;6.63;100.00;101035.81;4957507;28;20030;-69
2023/04/02 00:19:35;;;;;;;20.90;9.63;;;;;;;6.63;100.00;101039.28;4956302;28;20035;-69
2023/04/02 00:22:04;;;;;;;19.70;9.52;;;;;;;6.66;100.00;101043.72;4958355;28;20034;-69
2023/04/02 00:24:31;;;;;;;27.42;12.75;;;;;;;6.63;100.00;101047.03;4957495;28;20560;-69
2023/04/02 00:26:57;;;;;;;25.17;11.80;;;;;;;6.61;100.00;101054.75;4958395;28;20549;-69
2023/04/02 00:29:23;;;;;;;23.50;11.35;;;;;;;6.58;100.00;101051.16;4957379;28;20054;-69
2023/04/02 00:31:53;;;;;;;25.88;12.57;;;;;;;6.56;100.00;101060.53;4941180;28;20031;-69
2023/04/02 00:34:45;;;;;;;24.10;11.52;;;;;;;6.50;100.00;101063.75;4956692;28;20036;-69
2023/04/02 00:37:22;;;;;;;25.73;11.68;;;;;;;6.46;100.00;101066.13;4953278;28;20141;-68
2023/04/02 00:39:49;;;;;;;27.80;12.43;;;;;;;6.43;100.00;101070.38;5126760;23;20086;-68
2023/04/02 00:42:17;;;;;;;26.08;12.25;;;;;;;6.41;100.00;101081.47;4964864;28;20506;-68
2023/04/02 00:44:44;;;;;;;27.33;12.30;;;;;;;6.39;100.00;101078.81;4965878;28;20037;-68
2023/04/02 00:47:20;;;;;;;27.83;12.18;;;;;;;6.38;100.00;101077.03;4966911;28;20130;-68
2023/04/02 00:49:47;;;;;;;28.40;11.75;;;;;;;6.38;100.00;101081.34;4965826;28;20035;-68
2023/04/02 00:52:21;;;;;;;27.45;13.02;;;;;;;6.37;100.00;101087.31;4946945;28;20019;-68
2023/04/02 00:55:03;;;;;;;26.42;12.02;;;;;;;6.37;100.00;101090.81;4964746;28;20039;-68
2023/04/02 00:57:29;;;;;;;28.20;12.50;;;;;;;6.35;100.00;101095.03;4964341;28;20038;-68
2023/04/02 00:59:58;;;;;;;26.80;12.30;;;;;;;6.33;100.00;101099.25;4967056;28;20037;-68
2023/04/02 01:02:27;;;;;;;27.15;12.70;;;;;;;6.34;100.00;101106.19;4964538;28;20077;-68
2023/04/02 01:05:15;;;;;;;29.27;12.43;;;;;;;6.35;100.00;101110.56;4965608;28;20035;-68
2023/04/02 01:07:56;;;;;;;22.63;11.20;;;;;;;6.33;100.00;101117.38;4953692;28;20037;-68
2023/04/02 01:10:40;;;;;;;28.23;12.93;;;;;;;6.34;100.00;101116.53;4966540;28;20480;-68
2023/04/02 01:13:20;;;;;;;26.17;12.30;;;;;;;6.36;100.00;101124.41;4965885;28;20031;-68
2023/04/02 01:16:01;;;;;;;28.60;12.98;;;;;;;6.38;100.00;101123.63;4967954;28;20074;-68
2023/04/02 01:18:32;;;;;;;27.23;13.05;;;;;;;6.40;100.00;101134.94;4967883;28;20046;-68
2023/04/02 01:21:29;;;;;;;29.95;13.27;;;;;;;6.40;100.00;101127.19;4967295;28;20026;-68
2023/04/02 01:24:06;;;;;;;22.60;10.75;;;;;;;6.37;100.00;101136.50;4964039;28;20034;-68
2023/04/02 01:26:39;;;;;;;27.42;13.07;;;;;;;6.36;100.00;101134.75;4949940;28;20026;-68
2023/04/02 01:29:44;;;;;;;27.55;12.15;;;;;;;6.38;100.00;101144.34;4966954;28;20157;-69
2023/04/02 01:32:14;;;;;;;25.85;12.40;;;;;;;6.35;100.00;101146.78;4966634;28;20031;-69
2023/04/02 01:34:43;;;;;;;25.48;12.10;;;;;;;6.36;100.00;101155.47;4965790;28;20026;-69
2023/04/02 01:37:43;;;;;;;28.40;12.65;;;;;;;6.35;100.00;101153.69;4967603;28;20092;-68
2023/04/02 01:40:21;;;;;;;28.10;13.25;;;;;;;6.33;100.00;101158.78;4949171;28;20504;-69
2023/04/02 01:42:51;;;;;;;35.08;15.13;;;;;;;6.30;100.00;101174.19;4925496;29;20054;-69
2023/04/02 01:45:18;;;;;;;34.50;15.15;;;;;;;6.24;100.00;101176.44;4928241;29;20119;-69
2023/04/02 01:47:45;;;;;;;33.40;15.38;;;;;;;6.18;100.00;101186.53;4937100;28;20795;-69
2023/04/02 01:50:19;;;;;;;33.83;16.20;;;;;;;6.13;100.00;101178.56;4929309;29;20050;-69
2023/04/02 01:52:48;;;;;;;33.15;15.27;;;;;;;6.08;100.00;101196.44;4928592;29;20024;-69
2023/04/02 01:55:16;;;;;;;29.73;14.15;;;;;;;6.05;100.00;101195.41;4929580;29;20027;-69
2023/04/02 01:57:44;;;;;;;27.40;13.57;;;;;;;6.00;100.00;101202.94;4932096;29;20109;-68
2023/04/02 02:00:13;;;;;;;29.70;13.20;;;;;;;5.97;100.00;101201.88;4931171;29;20085;-68
2023/04/02 02:02:40;;;;;;;27.73;12.15;;;;;;;5.90;100.00;101206.75;4931010;29;20042;-68
2023/04/02 02:05:13;;;;;;;26.80;12.52;;;;;;;5.88;100.00;101204.91;4929107;29;20042;-68
2023/04/02 02:07:40;;;;;;;25.77;12.30;;;;;;;5.88;100.00;101217.81;4931354;29;20035;-68
2023/04/02 02:10:07;;;;;;;26.85;12.38;;;;;;;5.86;100.00;101214.28;4930185;29;20024;-68
2023/04/02 02:12:32;;;;;;;26.67;12.30;;;;;;;5.82;100.00;101215.88;4931629;29;20067;-68
2023/04/02 02:14:57;;;;;;;26.40;12.15;;;;;;;5.79;100.00;101219.97;4929758;29;20039;-68
2023/04/02 02:17:29;;;;;;;24.88;11.65;;;;;;;5.79;100.00;101232.91;4930812;29;20115;-68
2023/04/02 02:19:59;;;;;;;25.15;12.00;;;;;;;5.79;100.00;101238.06;4932021;29;20043;-68
2023/04/02 02:22:29;;;;;;;;;;;;;;;5.81;100.00;101241.63;4932725;29;20027;-68
2023/04/02 02:24:57;;;;;;;20.42;9.95;;;;;;;5.75;100.00;101250.88;4930508;29;20421;-68
2023/04/02 02:27:22;;;;;;;23.27;10.32;;;;;;;5.73;100.00;101249.88;4932154;29;20071;-68
2023/04/02 02:29:59;;;;;;;22.25;9.57;;;;;;;5.71;100.00;101254.09;4932347;29;20028;-68
2023/04/02 02:32:28;;;;;;;19.15;9.23;;;;;;;5.70;100.00;101259.19;4931681;29;20031;-68
2023/04/02 02:35:32;;;;;;;18.70;9.55;;;;;;;5.70;100.00;101267.81;4930692;29;20058;-68
2023/04/02 02:38:10;;;;;;;21.45;9.32;;;;;;;5.68;100.00;101264.28;4932538;29;20038;-68
2023/04/02 02:40:42;;;;;;;18.23;9.32;;;;;;;5.66;100.00;101271.09;4962818;28;20055;-68
2023/04/02 02:43:12;;;;;;;22.48;10.43;;;;;;;5.65;100.00;101276.16;4966897;28;20049;-68
2023/04/02 02:45:40;;;;;;;17.55;8.45;;;;;;;5.63;100.00;101273.50;4969480;28;20074;-68
2023/04/02 02:48:12;;;;;;;22.02;9.18;;;;;;;5.64;100.00;101288.22;4969626;28;20038;-68
2023/04/02 02:50:38;;;;;;;21.85;9.73;;;;;;;5.66;100.00;101291.78;4969543;28;20557;-68
2023/04/02 02:53:15;;;;;;;21.45;9.70;;;;;;;5.67;100.00;101288.38;4967269;28;20049;-68
2023/04/02 02:55:41;;;;;;;23.70;10.43;;;;;;;5.68;100.00;101291.84;4966464;28;20038;-68
2023/04/02 02:58:11;;;;;;;23.20;10.48;;;;;;;5.67;100.00;101298.72;4968110;28;20553;-68
2023/04/02 03:00:38;;;;;;;22.88;10.75;;;;;;;5.69;100.00;101307.44;4966257;28;20030;-68
2023/04/02 03:03:08;;;;;;;26.75;12.18;;;;;;;5.68;100.00;101312.53;4967759;28;20050;-68
2023/04/02 03:05:34;;;;;;;30.88;12.63;;;;;;;5.68;100.00;101313.41;4967059;28;20073;-68
2023/04/02 03:08:04;;;;;;;29.40;12.38;;;;;;;5.67;100.00;101321.09;4969678;28;20037;-68
2023/04/02 03:10:55;;;;;;;32.17;13.35;;;;;;;5.65;100.00;101317.53;4968109;28;20038;-68
2023/04/02 03:13:34;;;;;;;39.55;15.52;;;;;;;5.61;100.00;101326.84;4966969;28;20033;-68
2023/04/02 03:16:08;;;;;;;36.35;15.23;;;;;;;5.58;100.00;101330.16;4949705;28;20878;-68
2023/04/02 03:18:53;;;;;;;37.53;15.00;;;;;;;5.55;100.00;101336.88;4969333;28;20081;-68
2023/04/02 03:21:47;;;;;;;40.03;14.88;;;;;;;5.53;100.00;101352.31;4969692;28;20060;-68
2023/04/02 03:24:22;;;;;;;36.72;14.10;;;;;;;5.53;100.00;101354.88;4968607;28;20406;-68
2023/04/02 03:26:58;;;;;;;40.40;15.75;;;;;;;5.51;100.00;101360.78;4968037;28;20035;-68
2023/04/02 03:29:31;;;;;;;36.47;15.45;;;;;;;5.48;100.00;101360.63;4969222;28;20052;-68
2023/04/02 03:32:04;;;;;;;40.33;16.42;;;;;;;5.47;100.00;101370.03;4968667;28;20051;-68
2023/04/02 03:34:40;;;;;;;39.35;16.38;;;;;;;5.50;100.00;101379.66;4968467;28;20049;-68
2023/04/02 03:37:09;;;;;;;39.53;15.85;;;;;;;5.53;100.00;101387.56;4969592;28;20082;-68
2023/04/02 03:39:58;;;;;;;;;;;;;;;5.57;100.00;101389.53;4969783;28;20059;-68
2023/04/02 03:42:29;;;;;;;37.63;14.48;;;;;;;5.50;100.00;101397.75;4966410;28;19922;-68
2023/04/02 03:45:01;;;;;;;39.22;15.63;;;;;;;5.44;100.00;101403.47;4967309;28;20054;-68
2023/04/02 03:47:50;;;;;;;39.22;14.75;;;;;;;5.42;100.00;101411.97;4968862;28;20079;-68
2023/04/02 03:50:30;;;;;;;33.78;14.38;;;;;;;5.36;100.00;101421.19;4967903;28;20113;-68
2023/04/02 03:52:57;;;;;;;37.85;14.93;;;;;;;5.32;100.00;101431.28;4966996;28;20451;-68
2023/04/02 03:55:29;;;;;;;40.17;15.02;;;;;;;5.25;100.00;101427.44;4964713;28;20181;-68
2023/04/02 03:58:07;;;;;;;37.00;14.65;;;;;;;5.21;100.00;101444.50;4966929;28;20095;-68
2023/04/02 04:01:02;;;;;;;38.85;14.40;;;;;;;5.17;100.00;101436.47;4968605;28;20050;-68
2023/04/02 04:03:52;;;;;;;38.38;14.18;;;;;;;5.13;100.00;101437.13;4966835;28;20607;-68
2023/04/02 04:06:30;;;;;;;40.22;15.38;;;;;;;5.12;100.00;101445.69;4967261;28;20023;-68
2023/04/02 04:09:14;;;;;;;38.97;13.95;;;;;;;5.11;100.00;101449.94;4968383;28;20114;-68
2023/04/02 04:11:47;;;;;;;43.65;15.82;;;;;;;5.10;100.00;101449.84;4966372;28;20031;-68
2023/04/02 04:14:18;;;;;;;46.75;16.65;;;;;;;5.08;100.00;101457.50;4967027;28;20042;-68
2023/04/02 04:17:12;;;;;;;47.20;16.52;;;;;;;5.10;100.00;101465.34;4967851;28;20023;-68
2023/04/02 04:19:54;;;;;;;50.17;18.88;;;;;;;5.11;100.00;101482.63;4965990;28;20034;-68
2023/04/02 04:22:31;;;;;;;47.33;17.13;;;;;;;5.12;100.00;101480.13;4965600;28;20062;-68
2023/04/02 04:25:16;;;;;;;42.38;15.52;;;;;;;5.13;100.00;101481.03;4966536;28;20126;-68
2023/04/02 04:27:57;;;;;;;47.28;16.85;;;;;;;5.16;100.00;101491.53;4967164;28;20125;-68
2023/04/02 04:30:40;;;;;;;49.55;16.92;;;;;;;5.13;100.00;101501.72;4966489;28;20113;-68
2023/04/02 04:33:14;;;;;;;43.58;14.93;;;;;;;5.08;100.00;101504.00;4967064;28;20901;-68
2023/04/02 04:35:50;;;;;;;40.28;14.98;;;;;;;5.06;100.00;101508.22;4967153;28;20038;-68
2023/04/02 04:38:26;;;;;;;41.55;14.30;;;;;;;5.01;100.00;101523.44;4967505;28;20022;-68
2023/04/02 04:41:14;;;;;;;41.03;14.48;;;;;;;5.00;100.00;101529.41;4966159;28;20418;-68
2023/04/02 04:43:51;;;;;;;41.55;14.65;;;;;;;4.96;100.00;101532.63;4967355;28;20031;-68
2023/04/02 04:46:27;;;;;;;39.92;14.18;;;;;;;4.93;100.00;101535.03;4968894;28;20030;-68
2023/04/02 04:49:00;;;;;;;36.45;13.60;;;;;;;4.90;100.00;101542.59;4968362;28;20115;-68
2023/04/02 04:51:31;;;;;;;33.42;12.73;;;;;;;4.88;100.00;101542.50;4966839;28;20108;-68
2023/04/02 04:53:56;;;;;;;35.50;13.45;;;;;;;4.88;100.00;101549.34;4966984;28;20070;-68
2023/04/02 04:56:27;;;;;;;32.47;12.63;;;;;;;4.83;100.00;101559.41;4965577;28;20035;-67
2023/04/02 04:59:00;;;;;;;33.03;12.27;;;;;;;4.79;100.00;101561.72;4968040;28;20041;-68
2023/04/02 05:01:52;;;;;;;34.60;13.18;;;;;;;4.76;100.00;101565.03;4967476;28;20126;-68
2023/04/02 05:04:29;;;;;;;33.90;13.45;;;;;;;4.74;100.00;101576.09;4966857;28;20031;-68
2023/04/02 05:07:17;;;;;;;34.33;13.00;;;;;;;4.74;100.00;101578.66;4968253;28;20038;-68
2023/04/02 05:10:18;;;;;;;36.20;13.57;;;;;;;4.70;100.00;101581.03;4967150;28;20077;-68
2023/04/02 05:13:08;;;;;;;30.95;12.60;;;;;;;4.73;100.00;101587.19;4965783;28;20031;-68
2023/04/02 05:15:41;;;;;;;;;;;;;;;4.77;100.00;101596.91;4965580;28;20371;-67
2023/04/02 05:19:07;;;;;;;35.90;12.85;;;;;;;4.69;100.00;101604.19;4966685;28;19918;-68
2023/04/02 05:21:47;;;;;;;36.10;13.43;;;;;;;4.64;100.00;101608.19;4885066;29;20043;-68
2023/04/02 05:24:35;;;;;;;29.52;12.30;;;;;;;4.60;100.00;101611.38;4885495;29;20040;-68
2023/04/02 05:27:11;;;;;;;30.87;12.57;;;;;;;4.59;100.00;101614.75;4953863;28;20048;-68
2023/04/02 05:29:42;;;;;;;29.50;12.15;;;;;;;4.56;100.00;101607.72;4965546;28;20026;-68
2023/04/02 05:32:14;;;;;;;29.27;11.77;;;;;;;4.55;100.00;101613.69;4963595;28;20375;-68
2023/04/02 05:34:41;;;;;;;27.48;12.57;;;;;;;4.55;100.00;101624.03;4964034;28;20033;-68
2023/04/02 05:37:18;;;;;;;28.02;11.88;;;;;;;4.57;100.00;101634.44;4966619;28;20026;-68
2023/04/02 05:39:44;;;;;;;23.58;11.90;;;;;;;4.59;100.00;101636.31;4966501;28;20449;-68
2023/04/02 05:42:25;;;;;;;29.33;12.52;;;;;;;4.58;100.00;101641.38;4967111;28;20061;-68
2023/04/02 05:45:07;;;;;;;31.02;12.32;;;;;;;4.60;100.00;101642.34;4965605;28;20026;-68
2023/04/02 05:47:34;;;;;;;32.17;13.02;;;;;;;4.61;100.00;101647.59;4966286;28;20050;-68
2023/04/02 05:50:02;;;;;;;28.27;12.38;;;;;;;4.62;100.00;101651.97;4963233;28;20027;-68
2023/04/02 05:52:32;;;;;;;28.42;13.10;;;;;;;4.64;100.00;101654.66;4967041;28;20121;-68
2023/04/02 05:55:10;;;;;;;30.42;12.77;;;;;;;4.66;100.00;101664.28;4963571;28;20077;-68
2023/04/02 05:57:43;;;;;;;27.60;12.60;;;;;;;4.70;100.00;101657.59;4962230;28;20056;-68
2023/04/02 06:00:21;;;;;;;31.58;13.57;;;;;;;4.69;100.00;101666.13;4964317;28;20082;-68
2023/04/02 06:02:58;;;;;;;31.33;13.48;;;;;;;4.68;100.00;101680.75;4965462;28;20089;-68
2023/04/02 06:05:34;;;;;;;35.58;14.50;;;;;;;4.66;100.00;101689.19;4962897;28;20030;-68
2023/04/02 06:08:35;;;;;;;34.13;14.05;;;;;;;4.64;100.00;101694.25;4963601;28;20478;-68
2023/04/02 06:11:07;;;;;;;33.40;14.63;;;;;;;4.62;100.00;101695.88;4964626;28;20076;-68
2023/04/02 06:13:33;;;;;;;31.35;14.63;;;;;;;4.56;100.00;101710.94;4963830;28;20479;-68
2023/04/02 06:15:58;;;;;;;31.90;14.13;;;;;;;4.48;100.00;101704.44;4965606;28;20029;-68
2023/04/02 06:18:27;;;;;;;33.70;15.45;;;;;;;4.42;100.00;101712.69;4965749;28;20494;-68
2023/04/02 06:20:53;;;;;;;33.25;14.02;;;;;;;4.41;100.00;101722.91;4964500;28;20022;-68
2023/04/02 06:23:38;;;;;;;33.65;14.43;;;;;;;4.38;100.00;101726.19;4963781;28;20034;-68
2023/04/02 06:26:23;;;;;;;28.00;13.07;;;;;;;4.37;99.36;101737.28;4966014;28;20047;-68
2023/04/02 06:29:00;;;;;;;27.63;13.15;;;;;;;4.34;99.80;101732.88;4965483;28;21511;-68
2023/04/02 06:31:49;;;;;;;27.70;13.65;;;;;;;4.32;98.76;101749.91;4966544;28;20035;-67
2023/04/02 06:34:17;;;;;;;28.10;13.23;;;;;;;4.30;99.42;101746.34;4964559;28;20041;-67
2023/04/02 06:36:44;;;;;;;29.88;12.40;;;;;;;4.27;99.28;101746.16;4968774;28;20101;-68
2023/04/02 06:39:17;;;;;;;24.33;12.40;;;;;;;4.24;99.16;101751.09;4967720;28;20146;-68
2023/04/02 06:41:42;;;;;;;24.17;11.75;;;;;;;4.22;98.51;101759.56;4969691;28;20029;-68
2023/04/02 06:44:21;;;;;;;23.85;11.77;;;;;;;4.21;97.92;101763.81;4969541;28;20418;-68
2023/04/02 06:46:55;;;;;;;23.67;11.13;;;;;;;4.23;98.16;101781.97;4952672;28;20045;-67
2023/04/02 06:49:45;;;;;;;24.10;11.02;;;;;;;4.23;97.79;101788.03;4968724;28;20023;-68
2023/04/02 06:52:26;;;;;;;22.75;11.07;;;;;;;4.26;97.89;101783.06;4969672;28;20042;-67
2023/04/02 06:54:52;;;;;;;18.98;9.85;;;;;;;4.26;97.15;101795.06;4969412;28;20089;-68
2023/04/02 06:57:17;;;;;;;21.85;10.57;;;;;;;4.29;98.61;101801.31;4970210;28;21006;-68
2023/04/02 06:59:42;;;;;;;21.38;10.20;;;;;;;4.32;97.89;101814.41;4969568;28;20034;-68
2023/04/02 07:02:38;;;;;;;23.88;10.38;;;;;;;4.36;96.88;101812.94;4970176;28;20038;-68
2023/04/02 07:05:07;;;;;;;21.25;10.10;;;;;;;4.37;97.79;101814.69;4969344;28;20142;-68
2023/04/02 07:07:33;;;;;;;18.35;10.07;;;;;;;4.37;96.41;101822.44;4950604;28;20022;-67
2023/04/02 07:09:59;;;;;;;19.63;9.32;;;;;;;4.35;96.54;101832.66;4967537;28;20041;-68
2023/04/02 07:12:25;;;;;;;18.08;8.52;;;;;;;4.38;96.67;101842.31;4968676;28;20062;-68
2023/04/02 07:14:51;;;;;;;21.30;8.63;;;;;;;4.36;95.55;101854.22;4967687;28;20673;-67
2023/04/02 07:17:17;;;;;;;20.30;8.50;;;;;;;4.32;95.39;101854.81;4968116;28;20034;-67
2023/04/02 07:19:44;;;;;;;19.23;8.13;;;;;;;4.31;95.78;101861.63;4968943;28;20030;-67
2023/04/02 07:22:10;;;;;;;15.73;7.75;;;;;;;4.29;95.26;101877.84;4968187;28;20138;-68
2023/04/02 07:24:36;;;;;;;15.20;7.53;;;;;;;4.25;96.08;101887.03;4968492;28;20082;-68
2023/04/02 07:27:01;;;;;;;12.88;6.72;;;;;;;4.23;95.25;101885.16;4967990;28;20038;-68
2023/04/02 07:29:26;;;;;;;13.43;6.70;;;;;;;4.22;94.88;101886.84;4968709;28;20085;-67
2023/04/02 07:31:52;;;;;;;13.77;6.95;;;;;;;4.23;95.33;101887.72;4967747;28;20453;-68
2023/04/02 07:34:18;;;;;;;14.45;6.75;;;;;;;4.18;94.75;101893.47;4967967;28;20015;-68
2023/04/02 07:36:43;;;;;;;16.05;6.63;;;;;;;4.20;95.85;101900.44;4968095;28;20027;-68
2023/04/02 07:39:08;;;;;;;12.68;6.60;;;;;;;4.18;94.62;101895.16;4966309;28;20502;-68
2023/04/02 07:41:49;;;;;;;11.88;5.68;;;;;;;4.18;95.32;101902.91;4950784;28;20039;-68
2023/04/02 07:44:15;;;;;;;12.93;6.32;;;;;;;4.14;94.37;101900.91;4968909;28;20093;-68
2023/04/02 07:46:40;;;;;;;13.45;6.20;;;;;;;4.12;94.64;101911.13;4968363;28;20035;-68
2023/04/02 07:49:06;;;;;;;13.55;6.38;;;;;;;4.13;94.12;101906.88;4967578;28;20663;-68
2023/04/02 07:51:31;;;;;;;12.30;5.93;;;;;;;4.13;94.60;101912.03;4967792;28;20142;-67
2023/04/02 07:53:57;;;;;;;12.73;5.63;;;;;;;4.14;93.62;101913.81;4966654;28;21548;-68
2023/04/02 07:56:23;;;;;;;13.45;5.93;;;;;;;4.16;93.48;101927.72;4967450;28;20034;-68
2023/04/02 07:58:49;;;;;;;12.27;5.80;;;;;;;4.18;94.23;101918.38;4961378;28;20134;-68
2023/04/02 08:01:24;;;;;;;11.93;5.57;;;;;;;4.24;94.50;101934.25;4966367;28;20110;-68
2023/04/02 08:03:54;;;;;;;12.30;6.07;;;;;;;4.31;94.18;101931.28;4967525;28;20482;-67
2023/04/02 08:06:20;;;;;;;14.20;5.80;;;;;;;4.35;94.84;101933.28;5313013;23;20159;-68
2023/04/02 08:08:45;;;;;;;10.70;5.80;;;;;;;4.39;94.33;101942.16;4965824;28;20098;-68
2023/04/02 08:11:11;;;;;;;14.20;5.65;;;;;;;4.39;92.79;101946.41;4965758;28;20375;-68
2023/04/02 08:13:37;;;;;;;13.32;5.72;;;;;;;4.35;92.05;101956.50;4966045;28;20040;-67
2023/04/02 08:16:04;;;;;;;11.07;6.10;;;;;;;4.34;93.24;101959.91;4967523;28;20023;-67
2023/04/02 08:18:30;;;;;;;12.70;5.95;;;;;;;4.38;94.49;101961.00;4962046;28;20042;-66
2023/04/02 08:20:56;;;;;;;11.38;5.20;;;;;;;4.41;92.25;101957.72;4967119;28;20376;-67
2023/04/02 08:23:22;;;;;;;10.20;5.35;;;;;;;4.41;93.05;101968.94;4965242;28;20039;-66
2023/04/02 08:25:49;;;;;;;11.15;5.10;;;;;;;4.47;93.28;101971.91;4966484;28;20502;-66
2023/04/02 08:28:14;;;;;;;11.80;5.45;;;;;;;4.51;94.02;101973.91;4965614;28;20034;-66
2023/04/02 08:30:40;;;;;;;12.25;5.30;;;;;;;4.53;91.75;101989.50;4965398;28;20033;-66
2023/04/02 08:33:06;;;;;;;10.13;5.75;;;;;;;4.54;93.15;101983.56;4949024;28;20494;-68
2023/04/02 08:35:31;;;;;;;9.95;4.93;;;;;;;4.55;93.75;101995.69;4968798;28;20057;-67
2023/04/02 08:37:57;;;;;;;8.95;4.70;;;;;;;4.59;93.55;102000.25;4949908;28;20033;-68
2023/04/02 08:40:34;;;;;;;10.98;5.15;;;;;;;4.64;93.75;102003.13;4968590;28;20054;-68
2023/04/02 08:43:21;;;;;;;10.95;4.82;;;;;;;4.69;93.08;102009.47;4968961;28;20046;-68
2023/04/02 08:46:13;;;;;;;9.90;5.00;;;;;;;4.69;92.68;102020.72;4967865;28;20035;-67
2023/04/02 08:48:42;;;;;;;11.07;4.55;;;;;;;4.62;92.20;102023.69;4967827;28;20035;-68
2023/04/02 08:51:15;;;;;;;;;;;;;;;4.67;93.73;102027.44;4968219;28;20031;-67
2023/04/02 08:53:41;;;;;;;9.60;4.22;;;;;;;4.61;92.02;102027.06;4968741;28;19914;-67
2023/04/02 08:56:19;;;;;;;12.95;4.57;;;;;;;4.65;92.64;102034.22;4950289;28;20042;-68
2023/04/02 08:58:50;;;;;;;10.07;4.72;;;;;;;4.65;91.42;102036.78;4966708;28;20106;-67
2023/04/02 09:01:56;;;;;;;9.75;4.70;;;;;;;4.64;91.75;102050.50;4965552;28;20026;-67
2023/04/02 09:04:24;;;;;;;9.93;4.53;;;;;;;4.61;90.32;102052.88;4949222;28;20510;-68
2023/04/02 09:06:52;;;;;;;9.30;4.22;;;;;;;4.61;90.40;102063.19;4961860;28;20050;-67
2023/04/02 09:09:18;;;;;;;8.38;4.35;;;;;;;4.62;91.03;102070.16;4952273;28;20510;-68
2023/04/02 09:11:52;;;;;;;8.35;4.20;;;;;;;4.64;91.34;102072.84;4950931;28;20046;-68
2023/04/02 09:14:23;;;;;;;9.27;4.40;;;;;;;4.64;91.19;102078.88;4955952;28;20081;-68
2023/04/02 09:16:51;;;;;;;10.40;4.40;;;;;;;4.65;91.96;102075.53;4954436;28;20023;-67
2023/04/02 09:19:17;;;;;;;10.90;4.73;;;;;;;4.69;91.74;102082.69;4953658;28;20033;-67
2023/04/02 09:21:47;;;;;;;9.82;4.20;;;;;;;4.75;90.71;102081.28;4954175;28;20306;-67
2023/04/02 09:24:12;;;;;;;8.35;4.60;;;;;;;4.78;91.25;102081.50;4953930;28;20026;-68
2023/04/02 09:26:38;;;;;;;8.27;4.07;;;;;;;4.80;90.13;102095.41;4956724;28;20041;-67
2023/04/02 09:29:12;;;;;;;6.90;4.13;;;;;;;4.82;91.81;102101.56;4955693;28;20518;-68
2023/04/02 09:31:43;;;;;;;11.55;4.45;;;;;;;4.78;90.92;102105.66;4945774;28;20027;-68
2023/04/02 09:34:32;;;;;;;8.75;4.35;;;;;;;4.78;92.58;102109.91;4955680;28;20084;-68
2023/04/02 09:37:06;;;;;;;10.15;4.70;;;;;;;4.81;90.98;102120.47;4954657;28;20183;-68
2023/04/02 09:39:31;;;;;;;9.00;4.28;;;;;;;4.82;89.75;102114.47;4953597;28;20053;-68
2023/04/02 09:41:57;;;;;;;11.27;4.70;;;;;;;4.86;91.33;102124.22;4952514;28;20459;-67
2023/04/02 09:44:24;;;;;;;7.20;4.25;;;;;;;4.88;90.57;102120.97;4937686;28;20161;-67
2023/04/02 09:46:58;;;;;;;8.55;4.82;;;;;;;4.93;89.97;102129.00;4954048;28;20027;-68
2023/04/02 09:49:26;;;;;;;8.48;4.75;;;;;;;4.93;90.48;102134.19;4955881;28;20031;-68
2023/04/02 09:52:10;;;;;;;11.57;4.50;;;;;;;4.91;89.67;102134.88;4951449;28;20030;-67
2023/04/02 09:54:42;;;;;;;9.70;4.50;;;;;;;4.87;90.34;102137.25;4954670;28;20794;-67
2023/04/02 09:57:23;;;;;;;9.48;4.20;;;;;;;4.85;90.45;102150.84;4954567;28;20026;-68
2023/04/02 10:00:11;;;;;;;9.25;4.90;;;;;;;4.85;91.71;102145.66;4953022;28;20380;-68
2023/04/02 10:02:36;;;;;;;10.50;4.97;;;;;;;4.84;91.01;102159.41;4951243;28;20031;-68
2023/04/02 10:05:14;;;;;;;9.43;5.07;;;;;;;4.82;90.14;102158.38;4955664;28;20035;-67
2023/04/02 10:07:47;;;;;;;10.85;4.40;;;;;;;4.85;91.52;102164.66;4936958;28;20042;-68
2023/04/02 10:10:35;;;;;;;11.15;4.85;;;;;;;4.87;92.42;102159.59;4951858;28;20030;-68
2023/04/02 10:13:19;;;;;;;9.23;4.50;;;;;;;4.92;93.22;102165.06;4958609;28;20038;-67
2023/04/02 10:16:31;;;;;;;10.38;4.38;;;;;;;4.91;91.82;102169.34;4956387;28;20059;-68
2023/04/02 10:19:05;;;;;;;8.13;4.22;;;;;;;4.92;91.49;102171.13;4855974;29;20040;-67
2023/04/02 10:21:34;;;;;;;8.10;4.45;;;;;;;4.89;90.12;102168.34;4857743;29;20460;-68
2023/04/02 10:24:01;;;;;;;;;;;;;;;4.96;92.31;102174.81;4919119;28;20047;-67
2023/04/02 10:26:38;;;;;;;6.75;4.15;;;;;;;4.99;92.05;102177.63;4957386;28;19918;-67
2023/04/02 10:29:15;;;;;;;9.57;4.70;;;;;;;5.07;91.51;102188.44;4957391;28;20026;-68
2023/04/02 10:32:18;;;;;;;15.25;5.57;;;;;;;5.13;89.76;102188.88;4957014;28;20055;-67
2023/04/02 10:35:07;;;;;;;9.60;4.80;;;;;;;5.13;90.27;102189.78;4959005;28;20027;-68
2023/04/02 10:37:43;;;;;;;11.38;4.90;;;;;;;5.16;89.39;102207.19;4959017;28;20031;-68
2023/04/02 10:40:27;;;;;;;9.10;4.65;;;;;;;5.21;91.42;102209.28;4958296;28;20034;-68
2023/04/02 10:43:20;;;;;;;9.95;4.55;;;;;;;5.25;90.02;102212.06;4957202;28;20047;-68
2023/04/02 10:46:08;;;;;;;8.98;4.70;;;;;;;5.28;89.54;102226.06;4957810;28;20084;-68
2023/04/02 10:48:51;;;;;;;8.00;4.47;;;;;;;5.25;89.31;102219.81;4956845;28;20038;-68
2023/04/02 10:52:04;;;;;;;8.82;4.70;;;;;;;5.21;88.91;102221.28;4958229;28;20372;-68
2023/04/02 10:54:46;;;;;;;10.70;5.38;;;;;;;5.25;90.40;102220.72;4914928;29;20567;-68
2023/04/02 10:57:35;;;;;;;9.40;4.70;;;;;;;5.36;90.45;102222.31;4953703;28;20032;-68
2023/04/02 11:00:09;;;;;;;9.60;4.85;;;;;;;5.43;87.96;102220.16;4955224;28;20106;-68
2023/04/02 11:02:42;;;;;;;7.85;4.50;;;;;;;5.46;86.67;102228.09;4957149;28;20094;-68
2023/04/02 11:05:29;;;;;;;10.57;4.65;;;;;;;5.49;87.65;102225.72;4956381;28;20055;-68
2023/04/02 11:08:03;;;;;;;8.45;4.90;;;;;;;5.61;89.66;102229.13;4957745;28;20126;-68
2023/04/02 11:10:32;;;;;;;10.90;5.40;;;;;;;5.72;87.63;102233.31;4935871;28;20394;-68
2023/04/02 11:13:26;;;;;;;7.22;4.38;;;;;;;5.84;88.10;102240.09;4956363;28;20027;-68
2023/04/02 11:15:52;;;;;;;7.70;4.65;;;;;;;5.88;87.46;102252.41;4954138;28;20761;-68
2023/04/02 11:18:34;;;;;;;9.35;5.18;;;;;;;5.91;87.19;102250.94;4955752;28;20026;-67
2023/04/02 11:21:34;;;;;;;11.80;5.00;;;;;;;5.96;86.79;102261.56;4947774;28;20038;-67
2023/04/02 11:24:01;;;;;;;7.65;4.18;;;;;;;5.95;85.25;102275.31;4957515;28;20022;-68
2023/04/02 11:26:32;;;;;;;7.93;4.40;;;;;;;5.97;86.23;102265.06;4956898;28;20164;-68
2023/04/02 11:29:15;;;;;;;11.52;4.90;;;;;;;5.99;87.71;102266.97;4958101;28;20486;-68
2023/04/02 11:31:42;;;;;;;10.30;4.50;;;;;;;6.05;87.05;102277.75;4939591;28;20134;-67
2023/04/02 11:34:13;;;;;;;7.55;4.55;;;;;;;6.07;86.16;102278.75;4957672;28;20039;-67
2023/04/02 11:36:54;;;;;;;10.85;5.25;;;;;;;6.11;86.39;102279.81;4957776;28;20039;-67
2023/04/02 11:39:56;;;;;;;6.90;4.10;;;;;;;6.17;89.31;102281.91;4953841;28;20035;-68
2023/04/02 11:42:23;;;;;;;7.22;4.93;;;;;;;6.26;88.01;102291.19;4955312;28;20023;-67
2023/04/02 11:44:49;;;;;;;10.88;4.50;;;;;;;6.30;86.14;102294.88;4954201;28;20486;-68
2023/04/02 11:47:16;;;;;;;11.52;4.70;;;;;;;6.32;86.14;102301.03;4957574;28;20326;-68
2023/04/02 11:57:46;;;;;;;8.88;4.78;;;;;;;6.29;85.63;102302.53;4958717;28;20526;-67
2023/04/02 12:00:22;;;;;;;8.77;4.80;;;;;;;6.22;83.64;102304.72;4959827;28;20109;-67
2023/04/02 12:03:03;;;;;;;6.75;4.70;;;;;;;6.21;84.61;102314.97;4959140;28;20169;-67